Time;durP1;ratioP1;P1;durP2;ratioP2;P2;SDS_P1;SDS_P2;PMS_P1;PMS_P2;Temp;Humidity;BMP_temperature;BMP_pressure;BME280_temperature;BME280_humidity;BME280_pressure;Samples;Min_cycle;Max_cycle;Signal;HPM_P1;HPM_P2
2021/05/21 00:00:19;;;;;;;7.18;1.80;;;;;;;;;;5023376;28;20042;-77
2021/05/21 00:02:45;;;;;;;5.53;1.55;;;;;;;;;;5020777;28;20405;-77
2021/05/21 00:05:11;;;;;;;7.78;1.50;;;;;;;;;;5022981;28;20049;-78
2021/05/21 00:07:38;;;;;;;4.68;1.40;;;;;;;;;;4997755;28;20525;-78
2021/05/21 00:10:04;;;;;;;4.15;1.50;;;;;;;;;;5021052;28;20052;-78
2021/05/21 00:12:31;;;;;;;4.32;1.40;;;;;;;;;;5023342;28;20042;-78
2021/05/21 00:14:57;;;;;;;8.30;1.90;;;;;;;;;;5006091;28;20048;-78
2021/05/21 00:17:23;;;;;;;4.25;1.35;;;;;;;;;;5019662;28;20076;-77
2021/05/21 00:19:50;;;;;;;6.50;1.85;;;;;;;;;;5024227;28;20069;-77
2021/05/21 00:22:16;;;;;;;7.57;2.10;;;;;;;;;;5024682;28;20125;-78
2021/05/21 00:24:42;;;;;;;5.82;1.70;;;;;;;;;;4991966;28;20052;-78
2021/05/21 00:27:08;;;;;;;8.85;2.25;;;;;;;;;;5023809;28;20115;-77
2021/05/21 00:29:35;;;;;;;6.45;2.00;;;;;;;;;;5023680;28;20086;-78
2021/05/21 00:32:01;;;;;;;8.25;2.78;;;;;;;;;;5007014;28;20107;-78
2021/05/21 00:34:27;;;;;;;6.22;2.70;;;;;;;;;;5027242;28;20072;-78
2021/05/21 00:36:54;;;;;;;7.82;3.00;;;;;;;;;;5025931;28;20060;-78
2021/05/21 00:39:21;;;;;;;7.85;2.80;;;;;;;;;;5009346;28;20093;-78
2021/05/21 00:41:47;;;;;;;10.15;3.22;;;;;;;;;;5026538;28;20037;-78
2021/05/21 00:44:14;;;;;;;9.35;2.80;;;;;;;;;;5006099;28;20045;-77
2021/05/21 00:46:40;;;;;;;5.13;2.38;;;;;;;;;;5024693;28;20057;-78
2021/05/21 00:49:06;;;;;;;5.45;1.85;;;;;;;;;;5027869;28;20124;-77
2021/05/21 00:51:33;;;;;;;8.07;2.55;;;;;;;;;;5024513;28;20164;-78
2021/05/21 00:54:00;;;;;;;4.72;2.10;;;;;;;;;;5024806;28;20057;-78
2021/05/21 00:56:27;;;;;;;6.95;2.30;;;;;;;;;;5027049;28;20072;-77
2021/05/21 00:58:53;;;;;;;6.10;2.17;;;;;;;;;;5024634;28;20064;-78
2021/05/21 01:01:21;;;;;;;8.25;2.28;;;;;;;;;;5009364;28;20046;-78
2021/05/21 01:03:47;;;;;;;9.95;2.55;;;;;;;;;;5026806;28;20045;-78
2021/05/21 01:06:13;;;;;;;7.65;2.38;;;;;;;;;;5020148;28;20451;-77
2021/05/21 01:08:40;;;;;;;8.15;2.97;;;;;;;;;;5026810;28;20029;-78
2021/05/21 01:11:07;;;;;;;7.20;2.92;;;;;;;;;;5003695;28;20056;-78
2021/05/21 01:13:33;;;;;;;7.03;2.88;;;;;;;;;;5021552;28;20041;-77
2021/05/21 01:16:00;;;;;;;8.13;2.97;;;;;;;;;;5018030;28;20065;-78
2021/05/21 01:18:27;;;;;;;6.03;3.03;;;;;;;;;;5007973;28;20493;-78
2021/05/21 01:20:53;;;;;;;9.07;2.45;;;;;;;;;;5021174;28;20689;-77
2021/05/21 01:23:19;;;;;;;9.02;3.13;;;;;;;;;;5021340;28;20041;-78
2021/05/21 01:25:46;;;;;;;9.60;3.20;;;;;;;;;;5000287;28;20046;-78
2021/05/21 01:28:15;;;;;;;8.43;2.30;;;;;;;;;;5021447;28;20132;-77
2021/05/21 01:30:42;;;;;;;11.50;2.55;;;;;;;;;;5025195;28;20159;-77
2021/05/21 01:33:11;;;;;;;10.20;2.78;;;;;;;;;;5022193;28;20033;-78
2021/05/21 01:35:37;;;;;;;14.63;3.03;;;;;;;;;;5027247;28;20378;-78
2021/05/21 01:38:04;;;;;;;14.23;2.70;;;;;;;;;;5008913;28;20164;-78
2021/05/21 01:40:31;;;;;;;25.55;3.63;;;;;;;;;;5008412;28;20086;-78
2021/05/21 01:42:58;;;;;;;18.25;3.80;;;;;;;;;;5024972;28;20132;-78
2021/05/21 01:45:24;;;;;;;19.80;3.35;;;;;;;;;;5024920;28;20037;-78
2021/05/21 01:47:50;;;;;;;16.67;3.20;;;;;;;;;;4993665;28;20049;-78
2021/05/21 01:50:17;;;;;;;17.17;3.10;;;;;;;;;;5024359;28;20112;-78
2021/05/21 01:52:45;;;;;;;15.30;3.30;;;;;;;;;;5023404;28;20128;-77
2021/05/21 01:55:11;;;;;;;27.55;3.92;;;;;;;;;;5007415;28;20416;-77
2021/05/21 01:57:38;;;;;;;24.83;3.85;;;;;;;;;;5007960;28;20525;-77
2021/05/21 02:00:06;;;;;;;17.92;3.33;;;;;;;;;;5023832;28;20469;-77
2021/05/21 02:02:32;;;;;;;19.17;3.20;;;;;;;;;;5006479;28;20041;-77
2021/05/21 02:04:59;;;;;;;17.73;3.85;;;;;;;;;;5024039;28;20068;-77
2021/05/21 02:07:25;;;;;;;22.73;3.97;;;;;;;;;;5021811;28;20045;-77
2021/05/21 02:09:57;;;;;;;22.15;4.22;;;;;;;;;;5025262;28;20034;-77
2021/05/21 02:12:24;;;;;;;27.73;4.50;;;;;;;;;;5005593;28;20040;-77
2021/05/21 02:14:50;;;;;;;25.88;4.43;;;;;;;;;;5001928;28;20045;-77
2021/05/21 02:17:17;;;;;;;21.80;4.00;;;;;;;;;;5023305;28;20052;-78
2021/05/21 02:19:43;;;;;;;21.83;4.75;;;;;;;;;;5026164;28;20041;-78
2021/05/21 02:22:10;;;;;;;19.65;3.53;;;;;;;;;;5024963;28;20056;-77
2021/05/21 02:24:37;;;;;;;24.58;4.22;;;;;;;;;;5025065;28;21107;-78
2021/05/21 02:27:03;;;;;;;23.67;4.45;;;;;;;;;;5023169;28;21682;-78
2021/05/21 02:29:30;;;;;;;19.50;4.13;;;;;;;;;;5006311;28;20045;-78
2021/05/21 02:31:56;;;;;;;24.33;3.22;;;;;;;;;;5025968;28;20056;-78
2021/05/21 02:34:22;;;;;;;23.08;4.57;;;;;;;;;;5022765;28;20393;-78
2021/05/21 02:36:49;;;;;;;20.58;3.92;;;;;;;;;;5021874;28;20061;-77
2021/05/21 02:39:15;;;;;;;17.10;3.67;;;;;;;;;;5025106;28;20060;-78
2021/05/21 02:41:42;;;;;;;22.85;3.47;;;;;;;;;;5022321;28;20038;-78
2021/05/21 02:44:08;;;;;;;34.72;3.63;;;;;;;;;;5018434;28;20103;-78
2021/05/21 02:46:34;;;;;;;20.88;3.95;;;;;;;;;;5022856;28;20063;-78
2021/05/21 02:49:01;;;;;;;15.90;2.50;;;;;;;;;;5024086;28;20045;-77
2021/05/21 02:51:27;;;;;;;19.88;3.47;;;;;;;;;;5020531;28;20116;-78
2021/05/21 02:53:53;;;;;;;19.30;3.67;;;;;;;;;;5004975;28;20405;-78
2021/05/21 02:56:19;;;;;;;17.75;2.80;;;;;;;;;;5022906;28;20053;-77
2021/05/21 02:58:46;;;;;;;21.08;3.97;;;;;;;;;;5022809;28;20045;-78
2021/05/21 03:01:12;;;;;;;21.83;3.30;;;;;;;;;;5023517;28;20121;-78
2021/05/21 03:03:38;;;;;;;28.15;3.78;;;;;;;;;;5006825;28;20076;-78
2021/05/21 03:06:04;;;;;;;22.02;3.83;;;;;;;;;;5024626;28;20527;-78
2021/05/21 03:08:31;;;;;;;18.48;3.47;;;;;;;;;;5022666;28;20049;-78
2021/05/21 03:10:58;;;;;;;20.00;3.97;;;;;;;;;;5009023;28;20048;-78
2021/05/21 03:13:24;;;;;;;19.67;3.28;;;;;;;;;;5018868;28;20100;-78
2021/05/21 03:15:51;;;;;;;24.42;4.03;;;;;;;;;;4995304;28;20129;-78
2021/05/21 03:18:22;;;;;;;22.42;3.80;;;;;;;;;;5002076;28;20056;-78
2021/05/21 03:20:49;;;;;;;21.85;4.32;;;;;;;;;;5005974;28;20489;-77
2021/05/21 03:23:15;;;;;;;21.42;3.58;;;;;;;;;;5022922;28;20162;-78
2021/05/21 03:25:43;;;;;;;26.15;3.90;;;;;;;;;;5003510;28;20061;-78
2021/05/21 03:28:09;;;;;;;23.65;4.03;;;;;;;;;;5022313;28;20057;-77
2021/05/21 03:30:36;;;;;;;27.73;3.58;;;;;;;;;;5006036;28;20120;-77
2021/05/21 03:33:02;;;;;;;26.10;3.80;;;;;;;;;;5022629;28;20045;-78
2021/05/21 03:35:28;;;;;;;30.80;4.50;;;;;;;;;;5005582;28;20053;-78
2021/05/21 03:37:54;;;;;;;20.75;5.05;;;;;;;;;;5020385;28;20049;-78
2021/05/21 03:40:21;;;;;;;29.95;4.55;;;;;;;;;;5019492;28;20102;-77
2021/05/21 03:42:48;;;;;;;24.65;3.95;;;;;;;;;;5024144;28;20155;-78
2021/05/21 03:45:15;;;;;;;19.48;4.00;;;;;;;;;;5021541;28;20042;-78
2021/05/21 03:47:42;;;;;;;24.58;3.88;;;;;;;;;;5023591;28;20053;-77
2021/05/21 03:50:09;;;;;;;20.92;4.50;;;;;;;;;;5021652;28;20144;-78
2021/05/21 03:52:35;;;;;;;28.92;5.80;;;;;;;;;;5019684;28;20049;-78
2021/05/21 03:55:03;;;;;;;20.98;4.65;;;;;;;;;;5022427;28;20061;-78
2021/05/21 03:57:30;;;;;;;22.45;4.28;;;;;;;;;;5022299;28;20088;-78
2021/05/21 03:59:56;;;;;;;24.25;5.15;;;;;;;;;;5020798;28;20160;-78
2021/05/21 04:02:22;;;;;;;34.90;6.88;;;;;;;;;;5022932;28;20052;-78
2021/05/21 04:04:50;;;;;;;26.10;4.50;;;;;;;;;;5024688;28;20622;-78
2021/05/21 04:07:17;;;;;;;33.53;5.15;;;;;;;;;;5020908;28;20571;-77
2021/05/21 04:09:43;;;;;;;33.08;4.20;;;;;;;;;;5018541;28;20043;-78
2021/05/21 04:12:09;;;;;;;29.02;4.25;;;;;;;;;;5021446;28;20087;-78
2021/05/21 04:14:35;;;;;;;25.77;5.00;;;;;;;;;;5006063;28;20041;-78
2021/05/21 04:17:02;;;;;;;26.80;3.72;;;;;;;;;;5022893;28;20037;-78
2021/05/21 04:19:28;;;;;;;26.48;5.00;;;;;;;;;;5024870;28;20103;-78
2021/05/21 04:21:54;;;;;;;29.98;5.88;;;;;;;;;;5023411;28;20044;-78
2021/05/21 04:24:20;;;;;;;23.98;4.13;;;;;;;;;;5023233;28;20115;-78
2021/05/21 04:26:47;;;;;;;25.30;4.30;;;;;;;;;;5023122;28;20064;-77
2021/05/21 04:29:13;;;;;;;28.45;4.57;;;;;;;;;;5020625;28;20373;-78
2021/05/21 04:31:39;;;;;;;35.17;6.82;;;;;;;;;;5023350;28;20093;-78
2021/05/21 04:34:05;;;;;;;29.20;5.68;;;;;;;;;;5023380;28;20046;-78
2021/05/21 04:36:31;;;;;;;35.97;5.90;;;;;;;;;;5021575;28;20060;-78
2021/05/21 04:38:58;;;;;;;29.80;5.30;;;;;;;;;;5023995;28;20065;-78
2021/05/21 04:41:24;;;;;;;26.48;4.53;;;;;;;;;;5024490;28;20068;-78
2021/05/21 04:43:53;;;;;;;30.50;5.75;;;;;;;;;;5022486;28;20423;-78
2021/05/21 04:46:20;;;;;;;28.15;4.90;;;;;;;;;;5024296;28;20045;-78
2021/05/21 04:48:46;;;;;;;34.13;7.97;;;;;;;;;;5023795;28;20446;-75
2021/05/21 04:51:12;;;;;;;36.25;5.45;;;;;;;;;;5020590;28;20558;-77
2021/05/21 04:53:41;;;;;;;44.35;5.65;;;;;;;;;;5026426;28;20053;-78
2021/05/21 04:56:08;;;;;;;33.63;5.95;;;;;;;;;;5010889;28;20041;-78
2021/05/21 04:58:35;;;;;;;29.92;5.10;;;;;;;;;;5029858;28;20041;-77
2021/05/21 05:01:02;;;;;;;31.00;6.20;;;;;;;;;;5030172;28;20591;-77
2021/05/21 05:03:29;;;;;;;35.28;6.05;;;;;;;;;;5030127;28;20049;-77
2021/05/21 05:05:56;;;;;;;28.85;4.30;;;;;;;;;;5031172;28;20046;-78
2021/05/21 05:08:22;;;;;;;32.00;6.15;;;;;;;;;;5030056;28;20126;-78
2021/05/21 05:10:49;;;;;;;35.20;5.88;;;;;;;;;;5028375;28;20121;-78
2021/05/21 05:13:17;;;;;;;37.53;5.38;;;;;;;;;;5029852;28;20033;-77
2021/05/21 05:15:43;;;;;;;36.67;5.85;;;;;;;;;;5029323;28;20045;-78
2021/05/21 05:18:10;;;;;;;31.27;5.07;;;;;;;;;;5027792;28;20072;-78
2021/05/21 05:20:36;;;;;;;33.35;5.75;;;;;;;;;;5011478;28;20076;-78
2021/05/21 05:23:03;;;;;;;28.52;4.93;;;;;;;;;;5030078;28;20052;-79
2021/05/21 05:25:29;;;;;;;22.95;4.47;;;;;;;;;;5029359;28;20045;-78
2021/05/21 05:27:56;;;;;;;39.90;5.95;;;;;;;;;;5029535;28;20571;-78
2021/05/21 05:30:23;;;;;;;29.15;6.03;;;;;;;;;;5029961;28;20049;-78
2021/05/21 05:32:49;;;;;;;28.55;5.03;;;;;;;;;;5028731;28;20049;-79
2021/05/21 05:35:15;;;;;;;31.38;5.70;;;;;;;;;;5029972;28;20095;-78
2021/05/21 05:37:42;;;;;;;36.88;6.03;;;;;;;;;;5029104;28;20128;-78
2021/05/21 05:40:08;;;;;;;29.05;5.45;;;;;;;;;;5031442;28;20123;-79
2021/05/21 05:42:35;;;;;;;23.15;4.05;;;;;;;;;;5008029;28;20054;-79
2021/05/21 05:45:02;;;;;;;31.08;5.47;;;;;;;;;;5020789;28;20121;-78
2021/05/21 05:47:28;;;;;;;28.67;5.10;;;;;;;;;;5018313;28;20065;-79
2021/05/21 05:49:54;;;;;;;29.58;4.82;;;;;;;;;;5020429;28;20087;-78
2021/05/21 05:52:21;;;;;;;29.17;5.22;;;;;;;;;;5018652;28;20122;-78
2021/05/21 05:54:47;;;;;;;32.97;6.30;;;;;;;;;;5020116;28;20033;-83
2021/05/21 05:57:13;;;;;;;29.75;5.22;;;;;;;;;;5023641;28;20116;-78
2021/05/21 05:59:40;;;;;;;23.30;4.75;;;;;;;;;;5031376;28;20037;-78
2021/05/21 06:02:06;;;;;;;24.90;5.43;;;;;;;;;;5030422;28;20046;-79
2021/05/21 06:04:33;;;;;;;26.02;5.70;;;;;;;;;;5031627;28;20089;-78
2021/05/21 06:06:59;;;;;;;33.50;5.03;;;;;;;;;;5029081;28;20042;-78
2021/05/21 06:09:27;;;;;;;28.80;4.63;;;;;;;;;;5030572;28;20140;-78
2021/05/21 06:11:54;;;;;;;26.00;5.13;;;;;;;;;;5030438;28;20566;-79
2021/05/21 06:14:21;;;;;;;29.52;4.68;;;;;;;;;;5030829;28;20041;-79
2021/05/21 06:16:47;;;;;;;30.02;5.00;;;;;;;;;;5031027;28;20041;-79
2021/05/21 06:19:13;;;;;;;24.55;5.05;;;;;;;;;;5030192;28;20033;-79
2021/05/21 06:21:40;;;;;;;23.75;5.32;;;;;;;;;;5028745;28;20049;-78
2021/05/21 06:24:06;;;;;;;26.05;4.47;;;;;;;;;;5029881;28;20112;-78
2021/05/21 06:26:37;;;;;;;21.73;4.13;;;;;;;;;;5029688;28;20045;-78
2021/05/21 06:29:03;;;;;;;18.50;3.47;;;;;;;;;;5029206;28;20494;-78
2021/05/21 06:31:30;;;;;;;19.83;4.32;;;;;;;;;;5029987;28;20476;-78
2021/05/21 06:33:57;;;;;;;29.13;4.28;;;;;;;;;;5030181;28;20041;-78
2021/05/21 06:36:23;;;;;;;29.13;4.82;;;;;;;;;;5029426;28;20041;-78
2021/05/21 06:38:49;;;;;;;20.48;3.45;;;;;;;;;;5029959;28;20060;-78
2021/05/21 06:41:16;;;;;;;27.15;5.30;;;;;;;;;;5030172;28;20135;-79
2021/05/21 06:43:42;;;;;;;25.42;4.18;;;;;;;;;;5029374;28;20042;-78
2021/05/21 06:46:09;;;;;;;21.73;5.15;;;;;;;;;;5029764;28;20116;-78
2021/05/21 06:48:36;;;;;;;21.17;3.72;;;;;;;;;;5029372;28;20068;-78
2021/05/21 06:51:04;;;;;;;22.75;4.50;;;;;;;;;;5028658;28;20046;-78
2021/05/21 06:53:31;;;;;;;18.15;3.60;;;;;;;;;;5027143;28;20069;-78
2021/05/21 06:55:58;;;;;;;23.90;4.38;;;;;;;;;;5025750;28;20048;-78
2021/05/21 06:58:26;;;;;;;22.75;4.22;;;;;;;;;;5029041;28;20048;-78
2021/05/21 07:00:52;;;;;;;19.77;4.72;;;;;;;;;;5029359;28;20041;-78
2021/05/21 07:03:19;;;;;;;25.45;5.10;;;;;;;;;;5028618;28;20065;-79
2021/05/21 07:05:45;;;;;;;21.92;4.03;;;;;;;;;;5029712;28;20060;-78
2021/05/21 07:08:12;;;;;;;19.77;4.82;;;;;;;;;;5029437;28;20068;-78
2021/05/21 07:10:39;;;;;;;23.98;4.10;;;;;;;;;;5029210;28;20037;-78
2021/05/21 07:13:07;;;;;;;26.17;4.13;;;;;;;;;;5026277;28;20048;-78
2021/05/21 07:15:33;;;;;;;30.15;5.65;;;;;;;;;;5029179;28;20049;-78
2021/05/21 07:17:59;;;;;;;20.50;4.78;;;;;;;;;;5028497;28;20049;-78
2021/05/21 07:20:25;;;;;;;29.17;6.57;;;;;;;;;;5029191;28;20029;-79
2021/05/21 07:22:52;;;;;;;28.83;5.45;;;;;;;;;;5029194;28;20063;-79
2021/05/21 07:25:18;;;;;;;21.23;5.13;;;;;;;;;;5027776;28;20069;-79
2021/05/21 07:27:44;;;;;;;20.08;4.13;;;;;;;;;;5029085;28;20069;-79
2021/05/21 07:30:11;;;;;;;29.65;4.80;;;;;;;;;;5029266;28;20068;-78
2021/05/21 07:32:37;;;;;;;30.13;4.70;;;;;;;;;;5028100;28;20048;-78
2021/05/21 07:35:04;;;;;;;19.63;4.35;;;;;;;;;;5029938;28;20045;-79
2021/05/21 07:37:30;;;;;;;27.85;4.72;;;;;;;;;;5029411;28;20516;-78
2021/05/21 07:39:56;;;;;;;22.50;4.50;;;;;;;;;;5029213;28;20057;-79
2021/05/21 07:42:23;;;;;;;25.55;5.22;;;;;;;;;;5029336;28;20052;-79
2021/05/21 07:44:49;;;;;;;20.98;4.55;;;;;;;;;;5028005;28;20103;-78
2021/05/21 07:47:16;;;;;;;33.45;6.38;;;;;;;;;;5022974;28;20045;-78
2021/05/21 07:49:42;;;;;;;26.80;5.65;;;;;;;;;;5029174;28;20116;-78
2021/05/21 07:52:09;;;;;;;31.05;6.30;;;;;;;;;;5018217;28;20057;-78
2021/05/21 07:54:35;;;;;;;25.17;5.32;;;;;;;;;;5028737;28;20441;-78
2021/05/21 07:57:01;;;;;;;22.35;4.53;;;;;;;;;;5025520;28;20060;-78
2021/05/21 07:59:28;;;;;;;20.73;4.45;;;;;;;;;;5009811;28;20048;-79
2021/05/21 08:01:54;;;;;;;34.00;5.00;;;;;;;;;;5028357;28;20073;-78
2021/05/21 08:04:20;;;;;;;27.85;4.60;;;;;;;;;;5025867;28;20037;-78
2021/05/21 08:06:46;;;;;;;23.60;4.55;;;;;;;;;;5029009;28;20034;-79
2021/05/21 08:09:13;;;;;;;25.42;5.03;;;;;;;;;;5029353;28;20068;-79
2021/05/21 08:11:39;;;;;;;25.40;5.00;;;;;;;;;;5028789;28;20046;-78
2021/05/21 08:14:08;;;;;;;27.90;4.60;;;;;;;;;;5028625;28;20046;-78
2021/05/21 08:16:34;;;;;;;25.05;5.25;;;;;;;;;;5029300;28;20049;-78
2021/05/21 08:19:00;;;;;;;31.52;6.07;;;;;;;;;;5029175;28;20057;-79
2021/05/21 08:21:27;;;;;;;22.92;3.90;;;;;;;;;;5028696;28;20046;-78
2021/05/21 08:23:55;;;;;;;21.15;5.22;;;;;;;;;;5029388;28;20037;-78
2021/05/21 08:26:25;;;;;;;26.65;5.10;;;;;;;;;;5029536;28;20500;-78
2021/05/21 08:28:51;;;;;;;22.20;4.40;;;;;;;;;;5028907;28;20037;-79
2021/05/21 08:31:18;;;;;;;20.15;5.38;;;;;;;;;;5029932;28;20041;-78
2021/05/21 08:33:44;;;;;;;35.65;5.75;;;;;;;;;;5033626;28;20067;-78
2021/05/21 08:36:11;;;;;;;24.27;5.13;;;;;;;;;;5032146;28;20167;-79
2021/05/21 08:38:38;;;;;;;26.27;4.90;;;;;;;;;;5033272;28;20033;-78
2021/05/21 08:41:05;;;;;;;39.00;6.03;;;;;;;;;;5033408;28;20119;-78
2021/05/21 08:43:32;;;;;;;26.30;5.13;;;;;;;;;;5032379;28;20037;-78
2021/05/21 08:45:59;;;;;;;22.88;4.55;;;;;;;;;;5031548;28;20045;-78
2021/05/21 08:48:26;;;;;;;32.60;6.35;;;;;;;;;;5033204;28;20065;-78
2021/05/21 08:50:52;;;;;;;29.13;5.85;;;;;;;;;;5032635;28;20042;-78
2021/05/21 08:53:19;;;;;;;29.33;5.93;;;;;;;;;;5032634;28;20061;-78
2021/05/21 08:55:45;;;;;;;27.60;5.72;;;;;;;;;;5032072;28;20034;-78
2021/05/21 08:58:12;;;;;;;23.45;4.90;;;;;;;;;;5033311;28;20091;-78
2021/05/21 09:00:40;;;;;;;33.17;5.55;;;;;;;;;;5032876;28;20092;-78
2021/05/21 09:03:22;;;;;;;24.83;5.03;;;;;;;;;;5031666;28;20428;-78
2021/05/21 09:06:12;;;;;;;28.90;5.30;;;;;;;;;;5032638;28;20064;-78
2021/05/21 09:08:44;;;;;;;28.95;5.18;;;;;;;;;;5013075;28;20099;-78
2021/05/21 09:11:23;;;;;;;28.08;5.15;;;;;;;;;;5023744;28;20068;-78
2021/05/21 09:13:51;;;;;;;27.38;6.10;;;;;;;;;;5031381;28;20045;-78
2021/05/21 09:16:22;;;;;;;26.00;5.45;;;;;;;;;;5031076;28;20054;-78
2021/05/21 09:19:04;;;;;;;29.13;6.32;;;;;;;;;;5031690;28;20101;-78
2021/05/21 09:21:46;;;;;;;26.60;5.20;;;;;;;;;;5028671;28;20188;-78
2021/05/21 09:24:12;;;;;;;26.38;5.68;;;;;;;;;;5014130;28;20073;-80
2021/05/21 09:26:40;;;;;;;29.95;5.68;;;;;;;;;;5032100;28;20147;-78
2021/05/21 09:29:06;;;;;;;23.88;4.65;;;;;;;;;;5031988;28;20045;-79
2021/05/21 09:31:41;;;;;;;29.48;5.55;;;;;;;;;;5031047;28;20053;-78
2021/05/21 09:34:07;;;;;;;24.42;4.70;;;;;;;;;;5032176;28;20037;-78
2021/05/21 09:36:35;;;;;;;21.45;5.47;;;;;;;;;;5031991;28;20121;-77
2021/05/21 09:39:05;;;;;;;28.27;4.55;;;;;;;;;;5031274;28;20150;-78
2021/05/21 09:41:43;;;;;;;23.85;5.78;;;;;;;;;;5030955;28;20038;-78
2021/05/21 09:44:09;;;;;;;27.25;4.70;;;;;;;;;;5031156;28;20041;-79
2021/05/21 09:46:40;;;;;;;24.60;4.70;;;;;;;;;;5031018;28;20060;-79
2021/05/21 09:49:25;;;;;;;38.88;6.00;;;;;;;;;;5031783;28;20469;-79
2021/05/21 09:51:52;;;;;;;26.58;5.15;;;;;;;;;;5031382;28;20501;-80
2021/05/21 09:54:19;;;;;;;28.27;5.50;;;;;;;;;;5031158;28;20610;-79
2021/05/21 09:57:01;;;;;;;22.83;4.10;;;;;;;;;;5030932;28;20090;-80
2021/05/21 09:59:38;;;;;;;24.63;5.75;;;;;;;;;;5030735;28;20059;-79
2021/05/21 10:02:18;;;;;;;30.27;4.88;;;;;;;;;;5027694;28;20057;-80
2021/05/21 10:04:44;;;;;;;25.33;4.82;;;;;;;;;;5031370;28;20085;-79
2021/05/21 10:07:11;;;;;;;15.88;3.88;;;;;;;;;;5029239;28;20052;-79
2021/05/21 10:09:37;;;;;;;25.67;4.93;;;;;;;;;;5031215;28;20164;-80
2021/05/21 10:12:04;;;;;;;30.30;5.03;;;;;;;;;;5012599;28;20038;-78
2021/05/21 10:14:31;;;;;;;21.90;5.72;;;;;;;;;;5031267;28;20042;-77
2021/05/21 10:16:58;;;;;;;22.00;5.35;;;;;;;;;;5014000;28;20037;-77
2021/05/21 10:19:25;;;;;;;26.38;6.05;;;;;;;;;;5031534;28;20105;-77
2021/05/21 10:21:52;;;;;;;30.27;5.95;;;;;;;;;;5030245;28;20052;-79
2021/05/21 10:24:19;;;;;;;24.95;5.60;;;;;;;;;;5030313;28;20103;-79
2021/05/21 10:26:49;;;;;;;28.50;4.95;;;;;;;;;;5030627;28;20068;-78
2021/05/21 10:29:21;;;;;;;20.83;5.07;;;;;;;;;;5030251;28;20045;-87
2021/05/21 10:31:51;;;;;;;20.77;4.07;;;;;;;;;;5029065;28;20045;-84
2021/05/21 10:34:18;;;;;;;25.42;4.45;;;;;;;;;;5030422;28;20485;-72
2021/05/21 10:36:45;;;;;;;24.30;5.25;;;;;;;;;;5028800;28;20049;-72
2021/05/21 10:39:13;;;;;;;24.20;4.90;;;;;;;;;;5028716;28;20048;-74
2021/05/21 10:41:48;;;;;;;23.27;5.25;;;;;;;;;;5024559;28;20103;-71
2021/05/21 10:44:23;;;;;;;21.33;4.72;;;;;;;;;;5030240;28;20046;-72
2021/05/21 10:46:50;;;;;;;23.25;4.40;;;;;;;;;;5025924;28;20049;-72
2021/05/21 10:49:24;;;;;;;16.67;3.88;;;;;;;;;;5023719;28;20112;-72
2021/05/21 10:51:51;;;;;;;24.90;4.43;;;;;;;;;;5025365;28;20060;-72
2021/05/21 10:54:26;;;;;;;18.98;3.80;;;;;;;;;;5029262;28;20076;-72
2021/05/21 10:56:55;;;;;;;22.48;4.93;;;;;;;;;;5026609;28;20122;-72
2021/05/21 10:59:21;;;;;;;23.13;5.53;;;;;;;;;;5028621;28;20041;-72
2021/05/21 11:01:48;;;;;;;22.38;5.28;;;;;;;;;;5028901;28;20103;-72
2021/05/21 11:04:19;;;;;;;25.42;5.63;;;;;;;;;;5010326;28;20535;-72
2021/05/21 11:06:49;;;;;;;25.95;4.30;;;;;;;;;;5027979;28;20053;-72
2021/05/21 11:09:17;;;;;;;33.80;6.00;;;;;;;;;;5028110;28;20062;-71
2021/05/21 11:11:45;;;;;;;20.27;4.65;;;;;;;;;;5027763;28;20112;-72
2021/05/21 11:14:19;;;;;;;22.88;4.15;;;;;;;;;;5029915;28;20042;-72
2021/05/21 11:16:53;;;;;;;29.80;4.97;;;;;;;;;;5027594;28;20088;-72
2021/05/21 11:19:21;;;;;;;24.05;5.95;;;;;;;;;;5024386;28;20060;-71
2021/05/21 11:21:50;;;;;;;21.23;5.03;;;;;;;;;;5025268;28;20056;-71
2021/05/21 11:24:16;;;;;;;24.00;4.97;;;;;;;;;;5026523;28;20110;-72
2021/05/21 11:26:43;;;;;;;34.83;6.63;;;;;;;;;;5022405;28;20042;-72
2021/05/21 11:29:09;;;;;;;21.10;4.65;;;;;;;;;;5029834;28;20219;-72
2021/05/21 11:31:37;;;;;;;25.23;4.25;;;;;;;;;;5027978;28;20052;-71
2021/05/21 11:34:05;;;;;;;24.73;5.65;;;;;;;;;;5020205;28;20045;-72
2021/05/21 11:36:34;;;;;;;23.98;5.00;;;;;;;;;;5024055;28;20050;-72
2021/05/21 11:39:01;;;;;;;23.83;5.20;;;;;;;;;;5017208;28;20185;-72
2021/05/21 11:41:29;;;;;;;23.55;6.63;;;;;;;;;;5008366;28;20050;-72
2021/05/21 11:43:55;;;;;;;20.77;5.10;;;;;;;;;;5018044;28;20038;-72
2021/05/21 11:46:22;;;;;;;18.38;4.40;;;;;;;;;;5008486;28;20042;-72
2021/05/21 11:48:49;;;;;;;19.10;3.83;;;;;;;;;;5022073;28;20045;-72
2021/05/21 11:51:24;;;;;;;19.85;3.90;;;;;;;;;;5023386;28;20073;-72
2021/05/21 11:53:50;;;;;;;;;;;;;;;;;;5021890;28;20053;-72
2021/05/21 11:56:27;;;;;;;15.93;3.95;;;;;;;;;;5020137;28;20364;-71
2021/05/21 11:58:57;;;;;;;27.77;4.35;;;;;;;;;;5017699;28;20149;-74
2021/05/21 12:01:24;;;;;;;21.73;4.18;;;;;;;;;;5018225;28;20488;-77
2021/05/21 12:03:51;;;;;;;16.38;3.97;;;;;;;;;;5025279;28;20441;-74
2021/05/21 12:06:17;;;;;;;21.30;4.03;;;;;;;;;;5016554;28;20053;-74
2021/05/21 12:08:46;;;;;;;21.17;3.80;;;;;;;;;;5018119;28;20425;-74
2021/05/21 12:11:13;;;;;;;21.40;4.38;;;;;;;;;;5017808;28;20487;-74
2021/05/21 12:13:39;;;;;;;26.20;4.53;;;;;;;;;;5019860;28;20132;-75
2021/05/21 12:16:09;;;;;;;23.33;5.07;;;;;;;;;;5017690;28;20057;-74
2021/05/21 12:18:36;;;;;;;17.13;4.20;;;;;;;;;;5018245;28;20489;-75
2021/05/21 12:21:02;;;;;;;16.52;3.28;;;;;;;;;;5019163;28;20049;-75
2021/05/21 12:23:31;;;;;;;24.00;4.25;;;;;;;;;;5020070;28;20057;-74
2021/05/21 12:25:57;;;;;;;15.27;2.83;;;;;;;;;;5017986;28;20370;-75
2021/05/21 12:28:24;;;;;;;14.15;3.97;;;;;;;;;;5018597;28;20046;-75
2021/05/21 12:30:50;;;;;;;23.77;3.90;;;;;;;;;;5018162;28;20492;-74
2021/05/21 12:33:16;;;;;;;20.92;3.85;;;;;;;;;;5019894;28;20133;-75
2021/05/21 12:35:43;;;;;;;21.13;3.97;;;;;;;;;;5017712;28;20050;-75
2021/05/21 12:38:11;;;;;;;24.80;4.40;;;;;;;;;;5018379;28;20084;-75
2021/05/21 12:40:49;;;;;;;20.38;3.67;;;;;;;;;;5014375;28;20444;-75
2021/05/21 12:43:16;;;;;;;16.95;4.03;;;;;;;;;;5014021;28;20038;-74
2021/05/21 12:45:55;;;;;;;17.55;3.17;;;;;;;;;;5017317;28;20041;-75
2021/05/21 12:48:30;;;;;;;20.60;3.90;;;;;;;;;;5018196;28;20161;-75
2021/05/21 12:50:56;;;;;;;22.10;4.18;;;;;;;;;;5016968;28;20042;-75
2021/05/21 12:53:28;;;;;;;18.35;3.65;;;;;;;;;;5016094;28;20053;-75
2021/05/21 12:55:55;;;;;;;15.40;2.80;;;;;;;;;;5012709;28;20420;-75
2021/05/21 12:58:22;;;;;;;18.35;3.63;;;;;;;;;;5015474;28;20467;-75
2021/05/21 13:00:51;;;;;;;15.38;2.50;;;;;;;;;;5015153;28;22058;-74
2021/05/21 13:03:17;;;;;;;16.73;2.65;;;;;;;;;;5017278;28;20081;-74
2021/05/21 13:05:43;;;;;;;19.20;4.22;;;;;;;;;;5020353;28;20119;-74
2021/05/21 13:08:10;;;;;;;15.82;2.47;;;;;;;;;;5017839;28;20112;-74
2021/05/21 13:10:38;;;;;;;21.10;3.70;;;;;;;;;;5021607;28;20064;-75
2021/05/21 13:13:04;;;;;;;22.33;3.78;;;;;;;;;;5018255;28;20049;-75
2021/05/21 13:15:31;;;;;;;21.70;3.70;;;;;;;;;;5017290;28;20038;-74
2021/05/21 13:18:01;;;;;;;17.60;3.97;;;;;;;;;;5019038;28;20145;-74
2021/05/21 13:20:28;;;;;;;19.50;3.70;;;;;;;;;;5025830;28;20041;-74
2021/05/21 13:22:56;;;;;;;18.42;3.42;;;;;;;;;;5020919;28;20163;-75
2021/05/21 13:25:26;;;;;;;19.48;3.53;;;;;;;;;;5025455;28;20060;-75
2021/05/21 13:27:52;;;;;;;17.83;4.35;;;;;;;;;;5023168;28;20538;-74
2021/05/21 13:30:20;;;;;;;18.67;3.58;;;;;;;;;;5022683;28;20053;-74
2021/05/21 13:32:46;;;;;;;17.83;3.55;;;;;;;;;;5009623;28;20076;-75
2021/05/21 13:35:13;;;;;;;15.35;3.47;;;;;;;;;;5026182;28;20421;-75
2021/05/21 13:37:40;;;;;;;22.05;2.83;;;;;;;;;;5028656;28;20080;-75
2021/05/21 13:40:07;;;;;;;22.17;3.50;;;;;;;;;;5030753;28;20033;-75
2021/05/21 13:42:35;;;;;;;13.05;3.10;;;;;;;;;;5029787;28;20045;-75
2021/05/21 13:45:08;;;;;;;17.05;3.85;;;;;;;;;;5029581;28;20417;-75
2021/05/21 13:47:34;;;;;;;15.02;3.55;;;;;;;;;;5027418;28;20107;-75
2021/05/21 13:50:01;;;;;;;23.00;3.40;;;;;;;;;;5031583;28;20125;-75
2021/05/21 13:52:29;;;;;;;19.98;3.30;;;;;;;;;;5030689;28;20059;-75
2021/05/21 13:54:57;;;;;;;27.58;4.72;;;;;;;;;;5024634;28;20037;-74
2021/05/21 13:57:24;;;;;;;14.13;3.35;;;;;;;;;;5029962;28;20060;-75
2021/05/21 13:59:50;;;;;;;13.27;2.10;;;;;;;;;;5028721;28;20049;-75
2021/05/21 14:02:16;;;;;;;16.92;3.03;;;;;;;;;;5030761;28;20042;-75
2021/05/21 14:04:43;;;;;;;18.50;3.13;;;;;;;;;;5030566;28;20061;-74
2021/05/21 14:07:09;;;;;;;19.88;3.00;;;;;;;;;;5019212;28;20129;-75
2021/05/21 14:09:35;;;;;;;12.15;2.72;;;;;;;;;;5022514;28;20045;-74
2021/05/21 14:12:01;;;;;;;17.58;4.25;;;;;;;;;;5015468;28;21273;-74
2021/05/21 14:14:30;;;;;;;26.75;3.42;;;;;;;;;;5023035;28;20149;-75
2021/05/21 14:16:57;;;;;;;19.63;4.65;;;;;;;;;;5021263;28;20431;-75
2021/05/21 14:19:23;;;;;;;29.42;4.05;;;;;;;;;;5022504;28;20091;-74
2021/05/21 14:21:50;;;;;;;23.60;3.70;;;;;;;;;;5020970;28;20481;-74
2021/05/21 14:24:16;;;;;;;19.95;3.65;;;;;;;;;;5017335;28;20137;-75
2021/05/21 14:26:43;;;;;;;19.40;3.53;;;;;;;;;;5027537;28;20041;-76
2021/05/21 14:29:10;;;;;;;21.30;4.85;;;;;;;;;;5006866;28;20053;-75
2021/05/21 14:31:41;;;;;;;19.65;3.90;;;;;;;;;;5023614;28;20046;-75